createdAt,value
2018-09-13T00:00:49.005Z,101781.56
2018-09-13T00:05:52.124Z,101763.44
2018-09-13T00:10:55.202Z,101777.14
2018-09-13T00:15:59.229Z,101779.97
2018-09-13T00:21:02.359Z,101771.64
2018-09-13T00:26:08.250Z,101768.27
2018-09-13T00:31:12.213Z,101777.25
2018-09-13T00:36:16.437Z,101775.82
2018-09-13T00:41:19.800Z,101775.55
2018-09-13T00:46:22.824Z,101779.30
2018-09-13T00:51:26.484Z,101780.48
2018-09-13T00:56:29.722Z,101766.42
2018-09-13T01:01:32.858Z,101765.27
2018-09-13T01:06:39.499Z,101765.20
2018-09-13T01:11:43.402Z,101767.41
2018-09-13T01:16:47.552Z,101762.05
2018-09-13T01:21:50.638Z,101761.66
2018-09-13T01:26:53.702Z,101761.14
2018-09-13T01:31:57.859Z,101757.41
2018-09-13T01:37:01.203Z,101764.16
2018-09-13T01:42:05.704Z,101757.55
2018-09-13T01:47:11.351Z,101754.45
2018-09-13T01:52:14.778Z,101747.49
2018-09-13T01:57:17.868Z,101748.36
2018-09-13T02:02:21.019Z,101738.71
2018-09-13T02:07:24.115Z,101733.14
2018-09-13T02:12:27.193Z,101729.59
2018-09-13T02:17:30.223Z,101726.14
2018-09-13T02:22:34.895Z,101722.55
2018-09-13T02:27:39.772Z,101724.67
2018-09-13T02:32:43.971Z,101724.47
2018-09-13T02:37:48.038Z,101717.03
2018-09-13T02:42:51.195Z,101716.81
2018-09-13T02:47:54.283Z,101707.86
2018-09-13T02:52:57.386Z,101716.21
2018-09-13T02:58:01.946Z,101703.44
2018-09-13T03:03:10.080Z,101704.83
2018-09-13T03:08:14.561Z,101694.17
2018-09-13T03:13:17.987Z,101697.96
2018-09-13T03:18:21.071Z,101697.40
2018-09-13T03:23:24.146Z,101704.95
2018-09-13T03:28:27.258Z,101706.50
2018-09-13T03:33:31.411Z,101697.27
2018-09-13T03:38:35.888Z,101694.10
2018-09-13T03:43:41.410Z,101691.22
2018-09-13T03:48:45.097Z,101704.81
2018-09-13T03:53:48.091Z,101704.21
2018-09-13T03:58:55.477Z,101706.85
2018-09-13T04:04:00.874Z,101702.51
2018-09-13T04:09:09.125Z,101705.47
2018-09-13T04:14:13.573Z,101707.27
2018-09-13T04:19:18.645Z,101698.33
2018-09-13T04:24:23.520Z,101706.77
2018-09-13T04:29:27.005Z,101698.31
2018-09-13T04:34:30.464Z,101703.96
2018-09-13T04:39:33.743Z,101707.34
2018-09-13T04:44:37.590Z,101706.69
2018-09-13T04:49:41.065Z,101710.23
2018-09-13T04:54:45.504Z,101711.41
2018-09-13T04:59:48.893Z,101706.69
2018-09-13T05:04:52.564Z,101710.06
2018-09-13T05:09:56.741Z,101705.55
2018-09-13T05:15:00.109Z,101701.34
2018-09-13T05:20:04.162Z,101706.55
2018-09-13T05:25:07.874Z,101700.26
2018-09-13T05:30:11.559Z,101698.55
2018-09-13T05:35:15.248Z,101695.63
2018-09-13T05:40:18.739Z,101698.69
2018-09-13T05:45:21.962Z,101694.72
2018-09-13T05:50:25.576Z,101704.13
2018-09-13T05:55:28.861Z,101699.28
2018-09-13T06:00:32.955Z,101707.59
2018-09-13T06:05:36.421Z,101710.38
2018-09-13T06:10:40.258Z,101701.44
2018-09-13T06:15:43.721Z,101708.45
2018-09-13T06:20:47.039Z,101706.20
2018-09-13T06:25:50.186Z,101714.86
2018-09-13T06:30:53.280Z,101718.98
2018-09-13T06:35:56.320Z,101719.84
2018-09-13T06:41:00.664Z,101717.09
2018-09-13T06:46:06.559Z,101716.89
2018-09-13T06:51:11.964Z,101714.70
2018-09-13T06:56:15.808Z,101719.05
2018-09-13T07:01:20.632Z,101725.27
2018-09-13T07:06:23.751Z,101722.20
2018-09-13T07:11:27.130Z,101722.94
2018-09-13T07:16:36.021Z,101726.38
2018-09-13T07:21:41.281Z,101722.14
2018-09-13T07:26:44.584Z,101724.64
2018-09-13T07:31:48.985Z,101727.08
2018-09-13T07:36:52.405Z,101731.56
2018-09-13T07:41:55.455Z,101738.06
2018-09-13T07:46:59.844Z,101736.45
2018-09-13T07:52:08.295Z,101737.91
2018-09-13T07:57:14.225Z,101737.12
2018-09-13T08:02:17.650Z,101745.27
2018-09-13T08:07:20.990Z,101742.80
2018-09-13T08:12:24.371Z,101738.73
2018-09-13T08:17:27.955Z,101740.94
2018-09-13T08:22:41.515Z,101753.41
2018-09-13T08:27:45.333Z,101752.98
2018-09-13T08:32:48.693Z,101753.45
2018-09-13T08:37:52.112Z,101753.69
2018-09-13T08:42:55.412Z,101769.37
2018-09-13T08:47:58.805Z,101765.27
2018-09-13T08:53:07.119Z,101769.64
2018-09-13T08:58:11.729Z,101763.44
2018-09-13T09:03:15.160Z,101771.72
2018-09-13T09:08:18.496Z,101770.77
2018-09-13T09:13:21.906Z,101770.36
2018-09-13T09:18:25.292Z,101742.03
2018-09-13T09:23:28.669Z,101758.16
2018-09-13T09:28:34.682Z,101755.54
2018-09-13T09:33:39.737Z,101745.56
2018-09-13T09:38:43.795Z,101743.95
2018-09-13T09:43:47.156Z,101737.61
2018-09-13T09:48:50.505Z,101742.84
2018-09-13T09:53:53.842Z,101742.77
2018-09-13T09:58:57.224Z,101744.17
2018-09-13T10:04:03.885Z,101747.07
2018-09-13T10:09:09.592Z,101729.58
2018-09-13T10:14:13.778Z,101749.09
2018-09-13T10:19:23.004Z,101749.53
2018-09-13T10:24:32.164Z,101744.16
2018-09-13T10:29:42.721Z,101734.61
2018-09-13T10:34:51.536Z,101724.96
2018-09-13T10:40:01.493Z,101729.80
2018-09-13T10:45:11.357Z,101728.86
2018-09-13T10:50:20.272Z,101735.22
2018-09-13T10:55:23.752Z,101719.20
2018-09-13T11:00:27.324Z,101720.59
2018-09-13T11:05:35.189Z,101725.95
2018-09-13T11:10:40.782Z,101726.53
2018-09-13T11:15:44.171Z,101725.61
2018-09-13T11:20:47.478Z,101714.03
2018-09-13T11:25:50.846Z,101725.34
2018-09-13T11:31:00.459Z,101724.67
2018-09-13T11:36:08.383Z,101722.80
2018-09-13T11:41:12.770Z,101716.62
2018-09-13T11:46:16.918Z,101718.67
2018-09-13T11:51:27.028Z,101715.30
2018-09-13T11:56:32.252Z,101712.95
2018-09-13T12:01:36.863Z,101722.59
2018-09-13T12:06:41.107Z,101718.81
2018-09-13T12:11:45.412Z,101718.80
2018-09-13T12:16:48.542Z,101709.36
2018-09-13T12:21:51.710Z,101707.53
2018-09-13T12:26:54.761Z,101703.07
2018-09-13T12:31:59.061Z,101698.03
2018-09-13T12:37:04.113Z,101695.10
2018-09-13T12:42:11.353Z,101697.84
2018-09-13T12:47:15.902Z,101688.22
2018-09-13T12:52:18.979Z,101675.63
2018-09-13T12:57:21.985Z,101673.75
2018-09-13T13:02:25.051Z,101671.38
2018-09-13T13:07:28.489Z,101664.84
2018-09-13T13:12:37.106Z,101670.38
2018-09-13T13:17:41.697Z,101673.09
2018-09-13T13:22:45.340Z,101669.52
2018-09-13T13:27:48.657Z,101666.08
2018-09-13T13:32:53.115Z,101659.44
2018-09-13T13:37:56.951Z,101657.87
2018-09-13T13:43:01.380Z,101647.48
2018-09-13T13:48:05.620Z,101643.89
2018-09-13T13:53:10.102Z,101630.91
2018-09-13T13:58:13.782Z,101630.59
2018-09-13T14:03:17.100Z,101620.70
2018-09-13T14:08:20.476Z,101622.98
2018-09-13T14:13:24.565Z,101608.57
2018-09-13T14:18:30.727Z,101607.91
2018-09-13T14:23:37.459Z,101607.23
2018-09-13T14:28:42.160Z,101606.16
2018-09-13T14:33:46.327Z,101614.56
2018-09-13T14:38:49.973Z,101616.35
2018-09-13T14:43:53.326Z,101582.91
2018-09-13T14:48:56.659Z,101603.55
2018-09-13T14:54:02.540Z,101605.88
2018-09-13T14:59:08.624Z,101606.05
2018-09-13T15:04:13.221Z,101613.13
2018-09-13T15:09:16.297Z,101602.84
2018-09-13T15:14:19.313Z,101603.14
2018-09-13T15:19:22.325Z,101601.52
2018-09-13T15:24:25.512Z,101589.91
2018-09-13T15:29:33.741Z,101588.48
2018-09-13T15:34:39.626Z,101587.50
2018-09-13T15:39:44.363Z,101582.61
2018-09-13T15:44:47.783Z,101587.58
2018-09-13T15:49:51.218Z,101597.16
2018-09-13T15:54:54.265Z,101596.19
2018-09-13T15:59:57.694Z,101588.39
2018-09-13T16:05:01.067Z,101588.41
2018-09-13T16:10:04.416Z,101594.20
2018-09-13T16:15:07.509Z,101591.38
2018-09-13T16:20:10.629Z,101585.27
2018-09-13T16:25:13.706Z,101586.20
2018-09-13T16:30:16.725Z,101578.59
2018-09-13T16:35:22.658Z,101572.23
2018-09-13T16:40:31.362Z,101574.82
2018-09-13T16:45:35.875Z,101583.91
2018-09-13T16:50:38.904Z,101596.89
2018-09-13T16:55:42.013Z,101593.39
2018-09-13T17:00:45.764Z,101587.46
2018-09-13T17:05:50.146Z,101590.52
2018-09-13T17:10:58.891Z,101593.88
2018-09-13T17:16:03.761Z,101591.82
2018-09-13T17:21:08.041Z,101587.47
2018-09-13T17:26:11.090Z,101587.15
2018-09-13T17:31:14.331Z,101599.56
2018-09-13T17:36:17.402Z,101599.38
2018-09-13T17:41:20.560Z,101601.12
2018-09-13T17:46:28.075Z,101590.14
2018-09-13T17:51:34.042Z,101592.39
2018-09-13T17:56:38.162Z,101608.09
2018-09-13T18:01:41.198Z,101600.27
2018-09-13T18:06:44.513Z,101601.67
2018-09-13T18:11:47.563Z,101621.23
2018-09-13T18:17:03.185Z,101603.37
2018-09-13T18:22:06.474Z,101606.08
2018-09-13T18:27:11.581Z,101605.86
2018-09-13T18:32:15.036Z,101612.52
2018-09-13T18:37:20.513Z,101616.16
2018-09-13T18:42:25.850Z,101620.89
2018-09-13T18:47:31.224Z,101624.52
2018-09-13T18:52:36.566Z,101629.51
2018-09-13T18:57:40.418Z,101625.34
2018-09-13T19:02:45.041Z,101631.53
2018-09-13T19:07:49.512Z,101629.66
2018-09-13T19:12:57.967Z,101634.60
2018-09-13T19:18:02.787Z,101636.23
2018-09-13T19:23:07.184Z,101639.67
2018-09-13T19:28:10.364Z,101638.95
2018-09-13T19:33:13.360Z,101641.31
2018-09-13T19:38:16.455Z,101643.80
2018-09-13T19:43:19.470Z,101649.94
2018-09-13T19:48:23.596Z,101653.31
2018-09-13T19:53:28.484Z,101647.69
2018-09-13T19:58:32.549Z,101648.09
2018-09-13T20:03:36.185Z,101661.66
2018-09-13T20:08:39.176Z,101661.05
2018-09-13T20:13:42.218Z,101654.36
2018-09-13T20:18:45.603Z,101654.08
2018-09-13T20:23:48.647Z,101652.66
2018-09-13T20:28:53.401Z,101651.97
2018-09-13T20:33:59.712Z,101657.33
2018-09-13T20:39:05.763Z,101649.97
2018-09-13T20:44:08.775Z,101653.03
2018-09-13T20:49:11.877Z,101654.92
2018-09-13T20:54:14.895Z,101653.30
2018-09-13T20:59:18.421Z,101652.05
2018-09-13T21:04:22.268Z,101652.80
2018-09-13T21:09:27.777Z,101653.48
2018-09-13T21:14:32.238Z,101651.23
2018-09-13T21:19:36.304Z,101648.98
2018-09-13T21:24:39.341Z,101646.80
2018-09-13T21:29:42.413Z,101644.33
2018-09-13T21:34:45.490Z,101658.77
2018-09-13T21:39:48.531Z,101650.50
2018-09-13T21:44:53.196Z,101654.13
2018-09-13T21:49:59.484Z,101657.15
2018-09-13T21:55:04.237Z,101655.19
2018-09-13T22:00:10.210Z,101653.73
2018-09-13T22:05:13.226Z,101649.39
2018-09-13T22:10:16.309Z,101654.93
2018-09-13T22:15:19.350Z,101668.30
2018-09-13T22:20:26.857Z,101662.22
2018-09-13T22:25:31.785Z,101667.11
2018-09-13T22:30:36.056Z,101662.95
2018-09-13T22:35:39.283Z,101668.67
2018-09-13T22:40:42.473Z,101668.39
2018-09-13T22:45:45.523Z,101672.12
2018-09-13T22:50:50.268Z,101668.35
2018-09-13T22:55:58.547Z,101674.27
2018-09-13T23:01:03.159Z,101663.35
2018-09-13T23:06:06.831Z,101662.42
2018-09-13T23:11:09.907Z,101673.00
2018-09-13T23:16:12.902Z,101670.87
2018-09-13T23:21:15.950Z,101669.86
2018-09-13T23:26:20.056Z,101676.27
2018-09-13T23:31:27.898Z,101670.86
2018-09-13T23:36:33.988Z,101674.50
2018-09-13T23:41:39.286Z,101683.94
2018-09-13T23:46:42.262Z,101692.17
2018-09-13T23:51:45.282Z,101693.72
2018-09-13T23:56:48.277Z,101694.87
